createdAt,value
2022-08-04T00:00:07.200Z,100652.00
2022-08-04T00:02:48.831Z,100648.00
2022-08-04T00:06:13.070Z,100650.00
2022-08-04T00:08:58.226Z,100651.00
2022-08-04T00:11:31.400Z,100658.00
2022-08-04T00:14:05.367Z,100656.00
2022-08-04T00:16:38.752Z,100663.00
2022-08-04T00:19:34.421Z,100665.00
2022-08-04T00:22:07.888Z,100668.00
2022-08-04T00:24:37.027Z,100667.00
2022-08-04T00:27:06.527Z,100674.00
2022-08-04T00:29:34.915Z,100656.00
2022-08-04T00:32:03.724Z,100660.00
2022-08-04T00:34:33.995Z,100650.00
2022-08-04T00:37:02.933Z,100655.00
2022-08-04T00:39:31.849Z,100658.00
2022-08-04T00:42:59.395Z,100658.00
2022-08-04T00:46:16.748Z,100651.00
2022-08-04T00:48:47.374Z,100641.00
2022-08-04T00:51:30.766Z,100663.00
2022-08-04T00:54:18.003Z,100649.00
2022-08-04T00:57:34.071Z,100652.00
2022-08-04T01:00:14.786Z,100649.00
2022-08-04T01:02:59.800Z,100650.00
2022-08-04T01:06:09.741Z,100641.00
2022-08-04T01:09:07.905Z,100645.00
2022-08-04T01:12:15.651Z,100650.00
2022-08-04T01:15:14.678Z,100645.00
2022-08-04T01:18:02.226Z,100645.00
2022-08-04T01:20:53.845Z,100645.00
2022-08-04T01:23:59.472Z,100639.00
2022-08-04T01:26:57.856Z,100644.00
2022-08-04T01:29:46.714Z,100647.00
2022-08-04T01:32:19.665Z,100651.00
2022-08-04T01:35:07.529Z,100652.00
2022-08-04T01:37:46.044Z,100654.00
2022-08-04T01:40:15.447Z,100645.00
2022-08-04T01:42:45.576Z,100646.00
2022-08-04T01:45:15.247Z,100625.00
2022-08-04T01:47:54.937Z,100645.00
2022-08-04T01:50:23.368Z,100645.00
2022-08-04T01:52:54.672Z,100647.00
2022-08-04T01:55:22.593Z,100649.00
2022-08-04T01:57:53.125Z,100650.00
2022-08-04T02:00:24.062Z,100642.00
2022-08-04T02:02:51.905Z,100646.00
2022-08-04T02:05:23.007Z,100652.00
2022-08-04T02:08:53.664Z,100655.00
2022-08-04T02:11:23.938Z,100649.00
2022-08-04T02:14:49.771Z,100651.00
2022-08-04T02:17:43.494Z,100645.00
2022-08-04T02:20:29.173Z,100639.00
2022-08-04T02:23:03.325Z,100646.00
2022-08-04T02:25:46.018Z,100650.00
2022-08-04T02:28:23.044Z,100638.00
2022-08-04T02:31:49.358Z,100635.00
2022-08-04T02:35:12.150Z,100646.00
2022-08-04T02:37:51.878Z,100646.00
2022-08-04T02:40:22.595Z,100645.00
2022-08-04T02:42:53.565Z,100641.00
2022-08-04T02:45:25.410Z,100638.00
2022-08-04T02:48:29.185Z,100621.00
2022-08-04T02:50:45.099Z,100635.00
2022-08-04T02:53:16.726Z,100632.00
2022-08-04T02:55:50.666Z,100632.00
2022-08-04T02:58:22.084Z,100633.00
2022-08-04T03:00:52.159Z,100633.00
2022-08-04T03:03:42.761Z,100634.00
2022-08-04T03:06:13.180Z,100629.00
2022-08-04T03:08:56.313Z,100626.00
2022-08-04T03:11:49.878Z,100630.00
2022-08-04T03:14:19.574Z,100626.00
2022-08-04T03:16:58.089Z,100634.00
2022-08-04T03:20:05.860Z,100637.00
2022-08-04T03:23:33.452Z,100642.00
2022-08-04T03:26:12.503Z,100644.00
2022-08-04T03:29:15.886Z,100635.00
2022-08-04T03:32:21.513Z,100640.00
2022-08-04T03:35:25.425Z,100642.00
2022-08-04T03:38:16.369Z,100643.00
2022-08-04T03:41:01.597Z,100645.00
2022-08-04T03:43:59.963Z,100642.00
2022-08-04T03:47:08.346Z,100643.00
2022-08-04T03:50:01.059Z,100643.00
2022-08-04T03:53:11.954Z,100638.00
2022-08-04T03:56:11.873Z,100652.00
2022-08-04T03:59:17.303Z,100651.00
2022-08-04T04:02:13.069Z,100644.00
2022-08-04T04:04:56.572Z,100644.00
2022-08-04T04:08:10.066Z,100653.00
2022-08-04T04:11:24.122Z,100651.00
2022-08-04T04:26:02.877Z,100658.00
2022-08-04T04:28:45.395Z,100653.00
2022-08-04T04:31:50.918Z,100655.00
2022-08-04T04:34:36.050Z,100660.00
2022-08-04T04:37:49.317Z,100661.00
2022-08-04T04:40:40.862Z,100666.00
2022-08-04T04:43:52.275Z,100655.00
2022-08-04T04:46:41.597Z,100656.00
2022-08-04T04:49:22.531Z,100665.00
2022-08-04T04:52:40.454Z,100665.00
2022-08-04T04:55:24.989Z,100659.00
2022-08-04T04:57:56.105Z,100670.00
2022-08-04T05:00:52.494Z,100664.00
2022-08-04T05:03:35.522Z,100670.00
2022-08-04T05:06:39.910Z,100669.00
2022-08-04T05:09:40.123Z,100664.00
2022-08-04T05:13:05.162Z,100676.00
2022-08-04T05:15:10.426Z,100670.00
2022-08-04T05:17:42.002Z,100667.00
2022-08-04T05:20:29.143Z,100672.00
2022-08-04T05:23:07.898Z,100668.00
2022-08-04T05:26:00.189Z,100665.00
2022-08-04T05:29:02.440Z,100667.00
2022-08-04T05:31:38.053Z,100660.00
2022-08-04T05:34:15.720Z,100661.00
2022-08-04T05:36:55.571Z,100660.00
2022-08-04T05:39:34.350Z,100669.00
2022-08-04T05:42:04.380Z,100655.00
2022-08-04T05:44:35.487Z,100659.00
2022-08-04T05:47:04.522Z,100655.00
2022-08-04T05:49:33.399Z,100649.00
2022-08-04T05:52:04.693Z,100659.00
2022-08-04T05:54:34.418Z,100648.00
2022-08-04T05:57:05.194Z,100663.00
2022-08-04T05:59:36.535Z,100656.00
2022-08-04T06:02:05.635Z,100660.00
2022-08-04T06:04:39.350Z,100655.00
2022-08-04T06:07:08.236Z,100654.00
2022-08-04T06:09:35.319Z,100655.00
2022-08-04T06:12:08.897Z,100662.00
2022-08-04T06:14:48.776Z,100648.00
2022-08-04T06:18:35.251Z,100648.00
2022-08-04T06:20:22.933Z,100640.00
2022-08-04T06:22:56.288Z,100653.00
2022-08-04T06:25:32.475Z,100648.00
2022-08-04T06:28:02.075Z,100650.00
2022-08-04T06:30:32.943Z,100637.00
2022-08-04T06:33:05.112Z,100645.00
2022-08-04T06:35:33.954Z,100643.00
2022-08-04T06:38:03.291Z,100640.00
2022-08-04T06:40:34.085Z,100638.00
2022-08-04T06:43:07.857Z,100640.00
2022-08-04T06:45:39.179Z,100627.00
2022-08-04T06:48:08.169Z,100618.00
2022-08-04T06:51:32.541Z,100632.00
2022-08-04T06:53:28.081Z,100633.00
2022-08-04T06:55:58.240Z,100634.00
2022-08-04T06:58:26.750Z,100630.00
2022-08-04T07:01:01.734Z,100621.00
2022-08-04T07:03:30.993Z,100631.00
2022-08-04T07:05:58.683Z,100633.00
2022-08-04T07:08:34.900Z,100627.00
2022-08-04T07:11:02.454Z,100620.00
2022-08-04T07:13:32.604Z,100621.00
2022-08-04T07:16:01.476Z,100619.00
2022-08-04T07:18:31.861Z,100619.00
2022-08-04T07:20:59.281Z,100622.00
2022-08-04T07:23:27.676Z,100621.00
2022-08-04T07:26:01.125Z,100618.00
2022-08-04T07:28:40.941Z,100618.00
2022-08-04T07:31:32.972Z,100618.00
2022-08-04T07:34:16.660Z,100614.00
2022-08-04T07:36:56.002Z,100613.00
2022-08-04T07:39:29.631Z,100607.00
2022-08-04T07:42:01.393Z,100609.00
2022-08-04T07:44:31.118Z,100601.00
2022-08-04T07:46:58.759Z,100607.00
2022-08-04T07:49:52.166Z,100602.00
2022-08-04T07:52:14.742Z,100602.00
2022-08-04T07:54:43.448Z,100602.00
2022-08-04T07:57:20.992Z,100605.00
2022-08-04T07:59:57.848Z,100601.00
2022-08-04T08:02:25.649Z,100597.00
2022-08-04T08:04:53.437Z,100576.00
2022-08-04T08:07:21.325Z,100580.00
2022-08-04T08:09:48.778Z,100596.00
2022-08-04T08:12:38.168Z,100589.00
2022-08-04T08:15:06.438Z,100575.00
2022-08-04T08:17:58.150Z,100580.00
2022-08-04T08:20:29.001Z,100577.00
2022-08-04T08:22:57.864Z,100582.00
2022-08-04T08:25:25.490Z,100577.00
2022-08-04T08:27:56.183Z,100571.00
2022-08-04T08:30:25.164Z,100576.00
2022-08-04T08:33:02.567Z,100569.00
2022-08-04T08:35:54.419Z,100569.00
2022-08-04T08:38:51.580Z,100575.00
2022-08-04T08:41:42.983Z,100581.00
2022-08-04T08:44:37.465Z,100591.00
2022-08-04T08:47:30.512Z,100579.00
2022-08-04T08:50:25.508Z,100591.00
2022-08-04T08:53:15.204Z,100583.00
2022-08-04T08:56:03.052Z,100577.00
2022-08-04T08:58:39.571Z,100581.00
2022-08-04T09:01:46.834Z,100586.00
2022-08-04T09:04:32.016Z,100583.00
2022-08-04T09:07:30.126Z,100587.00
2022-08-04T09:10:33.671Z,100568.00
2022-08-04T09:13:15.860Z,100565.00
2022-08-04T09:16:04.381Z,100566.00
2022-08-04T09:18:41.562Z,100570.00
2022-08-04T09:21:29.869Z,100572.00
2022-08-04T09:24:35.421Z,100567.00
2022-08-04T09:27:38.593Z,100568.00
2022-08-04T09:30:12.391Z,100564.00
2022-08-04T09:32:39.322Z,100574.00
2022-08-04T09:35:37.433Z,100566.00
2022-08-04T09:38:26.489Z,100554.00
2022-08-04T09:41:20.713Z,100563.00
2022-08-04T09:44:52.373Z,100563.00
2022-08-04T09:47:15.741Z,100562.00
2022-08-04T09:50:10.835Z,100563.00
2022-08-04T09:53:13.384Z,100570.00
2022-08-04T09:55:53.695Z,100559.00
2022-08-04T09:58:46.516Z,100560.00
2022-08-04T10:01:28.708Z,100552.00
2022-08-04T10:04:06.008Z,100553.00
2022-08-04T10:07:09.703Z,100542.00
2022-08-04T10:10:14.833Z,100542.00
2022-08-04T10:13:05.722Z,100546.00
2022-08-04T10:16:16.217Z,100542.00
2022-08-04T10:19:32.549Z,100549.00
2022-08-04T10:22:28.550Z,100542.00
2022-08-04T10:26:03.686Z,100529.00
2022-08-04T10:28:15.521Z,100529.00
2022-08-04T10:31:09.752Z,100525.00
2022-08-04T10:34:20.106Z,100520.00
2022-08-04T10:37:22.077Z,100527.00
2022-08-04T10:40:37.071Z,100529.00
2022-08-04T10:43:07.947Z,100524.00
2022-08-04T10:46:28.524Z,100510.00
2022-08-04T10:49:06.645Z,100512.00
2022-08-04T10:52:02.069Z,100520.00
2022-08-04T10:54:48.219Z,100515.00
2022-08-04T10:57:44.183Z,100527.00
2022-08-04T11:00:19.987Z,100529.00
2022-08-04T11:02:53.699Z,100526.00
2022-08-04T11:05:55.438Z,100523.00
2022-08-04T11:08:36.374Z,100528.00
2022-08-04T11:11:07.905Z,100518.00
2022-08-04T11:13:47.055Z,100519.00
2022-08-04T11:16:22.591Z,100521.00
2022-08-04T11:19:17.898Z,100522.00
2022-08-04T11:21:55.715Z,100504.00
2022-08-04T11:25:05.550Z,100504.00
2022-08-04T11:27:47.875Z,100505.00
2022-08-04T11:30:17.765Z,100512.00
2022-08-04T11:33:10.936Z,100508.00
2022-08-04T11:36:04.155Z,100507.00
2022-08-04T11:39:04.621Z,100506.00
2022-08-04T11:41:56.729Z,100512.00
2022-08-04T11:44:43.608Z,100517.00
2022-08-04T11:47:39.804Z,100503.00
2022-08-04T11:50:42.263Z,100517.00
2022-08-04T11:53:19.537Z,100505.00
2022-08-04T11:56:07.656Z,100509.00
2022-08-04T11:58:38.100Z,100504.00
2022-08-04T12:01:50.656Z,100511.00
2022-08-04T12:04:47.538Z,100509.00
2022-08-04T12:07:31.102Z,100506.00
2022-08-04T12:10:45.800Z,100519.00
2022-08-04T12:13:40.626Z,100514.00
2022-08-04T12:16:36.168Z,100509.00
2022-08-04T12:19:17.096Z,100514.00
2022-08-04T12:21:53.183Z,100505.00
2022-08-04T12:24:34.465Z,100516.00
2022-08-04T12:27:30.856Z,100505.00
2022-08-04T12:31:00.012Z,100511.00
2022-08-04T12:34:02.852Z,100507.00
2022-08-04T12:36:26.066Z,100504.00
2022-08-04T12:39:13.157Z,100508.00
2022-08-04T12:41:52.095Z,100498.00
2022-08-04T12:44:36.420Z,100507.00
2022-08-04T12:47:26.246Z,100498.00
2022-08-04T12:50:03.860Z,100498.00
2022-08-04T12:53:04.016Z,100500.00
2022-08-04T12:55:35.246Z,100483.00
2022-08-04T12:58:43.330Z,100488.00
2022-08-04T13:02:07.838Z,100495.00
2022-08-04T13:04:15.369Z,100484.00
2022-08-04T13:06:44.607Z,100488.00
2022-08-04T13:09:20.616Z,100491.00
2022-08-04T13:11:57.956Z,100487.00
2022-08-04T13:14:33.594Z,100481.00
2022-08-04T13:17:01.972Z,100479.00
2022-08-04T13:19:31.373Z,100484.00
2022-08-04T13:22:09.820Z,100473.00
2022-08-04T13:24:56.539Z,100475.00
2022-08-04T13:27:26.079Z,100481.00
2022-08-04T13:30:00.602Z,100480.00
2022-08-04T13:32:34.232Z,100476.00
2022-08-04T13:35:03.989Z,100476.00
2022-08-04T13:37:39.226Z,100476.00
2022-08-04T13:40:14.367Z,100462.00
2022-08-04T13:42:48.013Z,100465.00
2022-08-04T13:45:20.190Z,100472.00
2022-08-04T13:47:50.295Z,100451.00
2022-08-04T13:50:30.686Z,100478.00
2022-08-04T13:53:01.282Z,100466.00
2022-08-04T13:55:35.365Z,100463.00
2022-08-04T13:58:13.600Z,100465.00
2022-08-04T14:01:03.386Z,100453.00
2022-08-04T14:03:54.288Z,100465.00
2022-08-04T14:06:29.022Z,100456.00
2022-08-04T14:09:01.945Z,100450.00
2022-08-04T14:12:10.973Z,100454.00
2022-08-04T14:14:48.956Z,100453.00
2022-08-04T14:17:30.480Z,100434.00
2022-08-04T14:20:04.021Z,100451.00
2022-08-04T14:22:37.074Z,100448.00
2022-08-04T14:25:07.350Z,100445.00
2022-08-04T14:27:48.122Z,100443.00
2022-08-04T14:30:25.355Z,100439.00
2022-08-04T14:34:01.918Z,100436.00
2022-08-04T14:36:03.851Z,100420.00
2022-08-04T14:39:00.570Z,100430.00
2022-08-04T14:41:43.709Z,100433.00
2022-08-04T14:44:10.619Z,100430.00
2022-08-04T14:46:55.121Z,100427.00
2022-08-04T14:49:22.948Z,100426.00
2022-08-04T14:51:59.079Z,100422.00
2022-08-04T14:54:30.355Z,100422.00
2022-08-04T14:57:05.457Z,100422.00
2022-08-04T15:00:01.625Z,100432.00
2022-08-04T15:02:30.462Z,100425.00
2022-08-04T15:04:59.791Z,100415.00
2022-08-04T15:07:46.875Z,100423.00
2022-08-04T15:10:14.226Z,100425.00
2022-08-04T15:12:41.771Z,100423.00
2022-08-04T15:15:34.180Z,100424.00
2022-08-04T15:17:56.593Z,100414.00
2022-08-04T15:20:23.885Z,100415.00
2022-08-04T15:22:51.046Z,100405.00
2022-08-04T15:25:18.881Z,100411.00
2022-08-04T15:27:51.288Z,100416.00
2022-08-04T15:30:19.121Z,100412.00
2022-08-04T15:32:57.390Z,100420.00
2022-08-04T15:35:30.812Z,100420.00
2022-08-04T15:38:12.784Z,100415.00
2022-08-04T15:41:12.064Z,100414.00
2022-08-04T15:43:58.842Z,100411.00
2022-08-04T15:46:46.764Z,100418.00
2022-08-04T15:49:25.401Z,100421.00
2022-08-04T15:52:15.941Z,100408.00
2022-08-04T15:54:52.551Z,100413.00
2022-08-04T15:58:00.229Z,100411.00
2022-08-04T16:00:28.514Z,100419.00
2022-08-04T16:02:55.994Z,100417.00
2022-08-04T16:05:23.495Z,100407.00
2022-08-04T16:08:15.645Z,100406.00
2022-08-04T16:10:46.299Z,100411.00
2022-08-04T16:13:23.547Z,100418.00
2022-08-04T16:16:03.499Z,100419.00
2022-08-04T16:18:30.825Z,100416.00
2022-08-04T16:21:06.754Z,100413.00
2022-08-04T16:23:55.899Z,100419.00
2022-08-04T16:26:45.146Z,100415.00
2022-08-04T16:29:30.665Z,100428.00
2022-08-04T16:32:20.436Z,100427.00
2022-08-04T16:35:17.521Z,100430.00
2022-08-04T16:37:44.559Z,100429.00
2022-08-04T16:40:45.268Z,100428.00
2022-08-04T16:43:18.387Z,100422.00
2022-08-04T16:46:00.983Z,100425.00
2022-08-04T16:48:34.650Z,100420.00
2022-08-04T16:51:13.092Z,100421.00
2022-08-04T16:53:52.374Z,100416.00
2022-08-04T16:56:34.478Z,100419.00
2022-08-04T16:59:10.345Z,100419.00
2022-08-04T17:01:52.487Z,100414.00
2022-08-04T17:04:34.329Z,100423.00
2022-08-04T17:07:04.644Z,100420.00
2022-08-04T17:09:32.944Z,100419.00
2022-08-04T17:12:02.219Z,100420.00
2022-08-04T17:14:31.354Z,100407.00
2022-08-04T17:17:03.560Z,100410.00
2022-08-04T17:19:30.518Z,100416.00
2022-08-04T17:22:07.392Z,100417.00
2022-08-04T17:24:40.961Z,100418.00
2022-08-04T17:28:08.719Z,100418.00
2022-08-04T17:29:58.467Z,100413.00
2022-08-04T17:32:25.846Z,100415.00
2022-08-04T17:35:00.246Z,100423.00
2022-08-04T17:37:40.086Z,100427.00
2022-08-04T17:40:18.490Z,100430.00
2022-08-04T17:44:02.825Z,100425.00
2022-08-04T17:46:28.517Z,100431.00
2022-08-04T17:49:31.017Z,100427.00
2022-08-04T17:52:41.311Z,100426.00
2022-08-04T17:55:16.425Z,100427.00
2022-08-04T17:57:52.154Z,100430.00
2022-08-04T18:00:20.120Z,100431.00
2022-08-04T18:02:54.716Z,100433.00
2022-08-04T18:05:50.164Z,100435.00
2022-08-04T18:08:40.018Z,100441.00
2022-08-04T18:11:06.317Z,100440.00
2022-08-04T18:13:42.734Z,100437.00
2022-08-04T18:16:22.736Z,100443.00
2022-08-04T18:19:14.793Z,100441.00
2022-08-04T18:21:46.025Z,100440.00
2022-08-04T18:24:35.658Z,100449.00
2022-08-04T18:27:24.488Z,100445.00
2022-08-04T18:30:33.313Z,100441.00
2022-08-04T18:32:56.412Z,100442.00
2022-08-04T18:36:31.303Z,100452.00
2022-08-04T18:38:22.867Z,100457.00
2022-08-04T18:41:03.762Z,100454.00
2022-08-04T18:43:40.651Z,100458.00
2022-08-04T18:48:55.777Z,100469.00
2022-08-04T18:51:30.644Z,100461.00
2022-08-04T18:53:59.186Z,100469.00
2022-08-04T18:59:15.636Z,100473.00
2022-08-04T19:02:13.064Z,100472.00
2022-08-04T19:04:36.723Z,100475.00
2022-08-04T19:07:29.531Z,100473.00
2022-08-04T19:09:57.258Z,100471.00
2022-08-04T19:12:26.842Z,100479.00
2022-08-04T19:14:58.115Z,100476.00
2022-08-04T19:17:54.261Z,100477.00
2022-08-04T19:20:24.201Z,100480.00
2022-08-04T19:24:10.687Z,100472.00
2022-08-04T19:25:59.959Z,100479.00
2022-08-04T19:28:31.877Z,100476.00
2022-08-04T19:31:05.580Z,100477.00
2022-08-04T19:33:58.867Z,100476.00
2022-08-04T19:36:21.151Z,100476.00
2022-08-04T19:38:59.906Z,100480.00
2022-08-04T19:41:29.633Z,100470.00
2022-08-04T19:43:58.565Z,100479.00
2022-08-04T19:46:28.492Z,100485.00
2022-08-04T19:48:59.457Z,100475.00
2022-08-04T19:51:32.900Z,100491.00
2022-08-04T19:54:02.731Z,100492.00
2022-08-04T19:56:40.436Z,100476.00
2022-08-04T19:59:11.591Z,100491.00
2022-08-04T20:01:45.171Z,100495.00
2022-08-04T20:04:14.867Z,100497.00
2022-08-04T20:06:45.465Z,100494.00
2022-08-04T20:09:25.651Z,100493.00
2022-08-04T20:11:56.471Z,100496.00
2022-08-04T20:17:15.534Z,100498.00
2022-08-04T20:19:51.001Z,100500.00
2022-08-04T20:22:52.054Z,100505.00
2022-08-04T20:25:18.197Z,100491.00
2022-08-04T20:27:59.791Z,100502.00
2022-08-04T20:30:29.429Z,100506.00
2022-08-04T20:32:57.768Z,100489.00
2022-08-04T20:35:26.809Z,100505.00
2022-08-04T20:38:00.402Z,100488.00
2022-08-04T20:40:30.461Z,100495.00
2022-08-04T20:42:59.719Z,100502.00
2022-08-04T20:45:56.562Z,100498.00
2022-08-04T20:48:14.937Z,100491.00
2022-08-04T20:50:46.315Z,100504.00
2022-08-04T20:53:17.050Z,100500.00
2022-08-04T20:55:55.335Z,100501.00
2022-08-04T20:58:27.297Z,100503.00
2022-08-04T21:00:55.852Z,100500.00
2022-08-04T21:03:49.646Z,100502.00
2022-08-04T21:06:11.187Z,100505.00
2022-08-04T21:08:40.802Z,100504.00
2022-08-04T21:11:08.963Z,100508.00
2022-08-04T21:13:51.952Z,100512.00
2022-08-04T21:16:54.891Z,100519.00
2022-08-04T21:19:07.670Z,100517.00
2022-08-04T21:21:42.346Z,100519.00
2022-08-04T21:24:10.053Z,100521.00
2022-08-04T21:26:42.757Z,100519.00
2022-08-04T21:29:10.211Z,100516.00
2022-08-04T21:31:50.330Z,100519.00
2022-08-04T21:34:39.559Z,100519.00
2022-08-04T21:37:05.679Z,100526.00
2022-08-04T21:39:33.231Z,100508.00
2022-08-04T21:42:29.109Z,100524.00
2022-08-04T21:44:58.124Z,100523.00
2022-08-04T21:47:25.272Z,100519.00
2022-08-04T21:49:56.580Z,100522.00
2022-08-04T21:52:25.350Z,100526.00
2022-08-04T21:54:54.528Z,100523.00
2022-08-04T21:57:25.295Z,100524.00
2022-08-04T21:59:53.001Z,100528.00
2022-08-04T22:02:20.141Z,100527.00
2022-08-04T22:04:48.882Z,100531.00
2022-08-04T22:07:17.048Z,100524.00
2022-08-04T22:10:00.155Z,100522.00
2022-08-04T22:12:33.623Z,100521.00
2022-08-04T22:15:01.691Z,100522.00
2022-08-04T22:17:48.740Z,100524.00
2022-08-04T22:20:27.628Z,100516.00
2022-08-04T22:23:00.129Z,100517.00
2022-08-04T22:25:33.456Z,100516.00
2022-08-04T22:28:07.883Z,100511.00
2022-08-04T22:30:37.704Z,100514.00
2022-08-04T22:33:08.485Z,100525.00
2022-08-04T22:35:48.651Z,100518.00
2022-08-04T22:38:28.007Z,100511.00
2022-08-04T22:41:14.201Z,100520.00
2022-08-04T22:43:42.200Z,100518.00
2022-08-04T22:46:19.682Z,100519.00
2022-08-04T22:48:47.133Z,100517.00
2022-08-04T22:51:14.707Z,100508.00
2022-08-04T22:53:48.604Z,100510.00
2022-08-04T22:56:37.865Z,100514.00
2022-08-04T22:59:10.023Z,100501.00
2022-08-04T23:01:59.154Z,100509.00
2022-08-04T23:04:26.552Z,100501.00
2022-08-04T23:06:54.728Z,100501.00
2022-08-04T23:09:48.771Z,100501.00
2022-08-04T23:12:25.859Z,100494.00
2022-08-04T23:14:55.858Z,100485.00
2022-08-04T23:17:24.232Z,100496.00
2022-08-04T23:19:58.191Z,100494.00
2022-08-04T23:22:41.271Z,100495.00
2022-08-04T23:25:15.350Z,100489.00
2022-08-04T23:27:51.659Z,100487.00
2022-08-04T23:30:29.690Z,100488.00
2022-08-04T23:32:58.239Z,100489.00
2022-08-04T23:35:25.200Z,100480.00
2022-08-04T23:37:56.551Z,100472.00
2022-08-04T23:40:33.337Z,100477.00
2022-08-04T23:43:17.470Z,100476.00
2022-08-04T23:46:03.967Z,100472.00
2022-08-04T23:48:39.136Z,100483.00
2022-08-04T23:51:14.773Z,100484.00
2022-08-04T23:54:03.455Z,100471.00
2022-08-04T23:56:32.911Z,100472.00
2022-08-04T23:59:03.820Z,100471.00
